Time;durP1;ratioP1;P1;durP2;ratioP2;P2;SDS_P1;SDS_P2;PMS_P1;PMS_P2;Temp;Humidity;BMP_temperature;BMP_pressure;BME280_temperature;BME280_humidity;BME280_pressure;Samples;Min_cycle;Max_cycle;Signal;HPM_P1;HPM_P2
2022/08/15 00:00:45;;;;;;;;;;;;;;;-142.75;100.00;75039.13;5032715;28;19920;-66
2022/08/15 00:03:20;;;;;;;;;;;;;;;-142.75;100.00;75021.41;5033091;28;20359;-66
2022/08/15 00:05:45;;;;;;;;;;;;;;;-142.75;100.00;75003.69;5032884;28;19913;-66
2022/08/15 00:08:11;;;;;;;;;;;;;;;-142.75;100.00;74991.88;5032557;28;19919;-66
2022/08/15 00:10:36;;;;;;;;;;;;;;;-142.75;100.00;74984.00;5032905;28;19913;-66
2022/08/15 00:13:08;;;;;;;;;;;;;;;-142.75;100.00;74982.03;5032496;28;19913;-66
2022/08/15 00:15:33;;;;;;;;;;;;;;;-142.75;100.00;74968.28;5032367;28;20341;-66
2022/08/15 00:17:59;;;;;;;;;;;;;;;-142.75;100.00;74972.22;5032473;28;19914;-66
2022/08/15 00:20:24;;;;;;;;;;;;;;;-142.75;100.00;74970.25;5032814;28;19920;-66
2022/08/15 00:22:51;;;;;;;;;;;;;;;-142.75;100.00;74976.16;5032783;28;19913;-66
2022/08/15 00:25:17;;;;;;;;;;;;;;;-142.75;100.00;74980.06;5032694;28;19913;-66
2022/08/15 00:27:42;;;;;;;;;;;;;;;-142.75;100.00;74991.88;5032368;28;19929;-66
2022/08/15 00:30:08;;;;;;;;;;;;;;;-142.75;100.00;75017.47;5032579;28;19920;-66
2022/08/15 00:32:35;;;;;;;;;;;;;;;-142.75;100.00;75021.41;5032657;28;19913;-66
2022/08/15 00:35:01;;;;;;;;;;;;;;;-142.75;100.00;75023.38;5032076;28;20289;-66
2022/08/15 00:37:26;;;;;;;;;;;;;;;-142.75;100.00;75009.59;5034812;28;19913;-66
2022/08/15 00:39:52;;;;;;;;;;;;;;;-142.75;100.00;75003.69;5036147;28;20272;-66
2022/08/15 00:42:19;;;;;;;;;;;;;;;-142.75;100.00;74989.91;5036016;28;19913;-66
2022/08/15 00:44:46;;;;;;;;;;;;;;;-142.75;100.00;74989.91;5036015;28;19967;-66
2022/08/15 00:47:13;;;;;;;;;;;;;;;-142.75;100.00;74987.94;5035800;28;19920;-66
2022/08/15 00:49:39;;;;;;;;;;;;;;;-142.75;100.00;74976.16;5035935;28;19920;-66
2022/08/15 00:52:04;;;;;;;;;;;;;;;-142.75;100.00;74960.41;5035895;28;19925;-66
2022/08/15 00:54:39;;;;;;;;;;;;;;;-142.75;100.00;74962.38;5035797;28;19924;-66
2022/08/15 00:57:09;;;;;;;;;;;;;;;-142.75;100.00;74960.41;5035505;28;19924;-66
2022/08/15 00:59:35;;;;;;;;;;;;;;;-142.75;100.00;74950.56;5035840;28;20350;-66
2022/08/15 01:02:03;;;;;;;;;;;;;;;-142.75;100.00;74940.72;5035692;28;19913;-66
2022/08/15 01:04:29;;;;;;;;;;;;;;;-142.75;100.00;74934.81;5035732;28;20000;-66
2022/08/15 01:06:58;;;;;;;;;;;;;;;-142.75;100.00;74924.97;5035306;28;20017;-66
2022/08/15 01:09:24;;;;;;;;;;;;;;;-142.75;100.00;74921.06;5036094;28;20410;-66
2022/08/15 01:11:54;;;;;;;;;;;;;;;-142.75;100.00;74923.03;5035620;28;19982;-66
2022/08/15 01:14:20;;;;;;;;;;;;;;;-142.75;100.00;74913.19;5035153;28;19951;-66
2022/08/15 01:16:46;;;;;;;;;;;;;;;-142.75;100.00;74913.19;5035231;28;20398;-66
2022/08/15 01:19:17;;;;;;;;;;;;;;;-142.75;100.00;74917.13;5035545;28;20395;-66
2022/08/15 01:21:50;;;;;;;;;;;;;;;-142.75;100.00;74924.97;5017709;28;19913;-66
2022/08/15 01:24:35;;;;;;;;;;;;;;;-142.75;100.00;74924.97;5035260;28;19920;-66
2022/08/15 01:27:00;;;;;;;;;;;;;;;-142.75;100.00;74926.94;5034958;28;19936;-65
2022/08/15 01:29:27;;;;;;;;;;;;;;;-142.75;100.00;74928.91;5035317;28;19913;-66
2022/08/15 01:31:52;;;;;;;;;;;;;;;-142.75;100.00;74936.78;5035253;28;20000;-66
2022/08/15 01:34:17;;;;;;;;;;;;;;;-142.75;100.00;74936.78;5034965;28;20441;-66
2022/08/15 01:36:44;;;;;;;;;;;;;;;-142.75;100.00;74928.91;5034815;28;20012;-66
2022/08/15 01:39:11;;;;;;;;;;;;;;;-142.75;100.00;74932.84;5035034;28;19913;-66
2022/08/15 01:41:44;;;;;;;;;;;;;;;-142.75;100.00;74928.91;5034942;28;19913;-66
2022/08/15 01:44:21;;;;;;;;;;;;;;;-142.75;100.00;74924.97;5035125;28;19920;-66
2022/08/15 01:46:55;;;;;;;;;;;;;;;-142.75;100.00;74932.84;5016582;28;19956;-66
2022/08/15 01:49:23;;;;;;;;;;;;;;;-142.75;100.00;74934.81;5034975;28;19920;-66
2022/08/15 01:51:51;;;;;;;;;;;;;;;-142.75;100.00;74926.94;5034820;28;20367;-66
2022/08/15 01:54:17;;;;;;;;;;;;;;;-142.75;100.00;74930.88;5034607;28;19959;-66
2022/08/15 01:56:45;;;;;;;;;;;;;;;-142.75;100.00;74923.03;5034410;28;20080;-66
2022/08/15 01:59:12;;;;;;;;;;;;;;;-142.75;100.00;74921.06;5016960;28;19913;-65
2022/08/15 02:01:41;;;;;;;;;;;;;;;-142.75;100.00;74921.06;5034606;28;19920;-66
2022/08/15 02:04:06;;;;;;;;;;;;;;;-142.75;100.00;74921.06;5034641;28;19924;-66
2022/08/15 02:06:31;;;;;;;;;;;;;;;-142.75;100.00;74913.19;5034364;28;19913;-66
2022/08/15 02:08:56;;;;;;;;;;;;;;;-142.75;100.00;74903.34;5034368;28;19913;-65
2022/08/15 02:11:25;;;;;;;;;;;;;;;-142.75;100.00;74909.25;5034454;28;19964;-66
2022/08/15 02:13:54;;;;;;;;;;;;;;;-142.75;100.00;74901.38;5034339;28;19913;-66
2022/08/15 02:16:20;;;;;;;;;;;;;;;-142.75;100.00;74905.31;5034027;28;19928;-66
2022/08/15 02:18:45;;;;;;;;;;;;;;;-142.75;100.00;74897.44;5034068;28;20314;-66
2022/08/15 02:21:10;;;;;;;;;;;;;;;-142.75;100.00;74895.47;5034295;28;19982;-66
2022/08/15 02:23:36;;;;;;;;;;;;;;;-142.75;100.00;74915.16;5034181;28;20364;-66
2022/08/15 02:26:03;;;;;;;;;;;;;;;-142.75;100.00;74907.28;5034096;28;19920;-66
2022/08/15 02:28:28;;;;;;;;;;;;;;;-142.75;100.00;74905.31;5015951;28;19960;-65
2022/08/15 02:30:53;;;;;;;;;;;;;;;-142.75;100.00;74911.22;5034023;28;19948;-66
2022/08/15 02:33:19;;;;;;;;;;;;;;;-142.75;100.00;74905.31;5016215;28;19940;-66
2022/08/15 02:35:44;;;;;;;;;;;;;;;-142.75;100.00;74899.41;5015961;28;20016;-66
2022/08/15 02:38:09;;;;;;;;;;;;;;;-142.75;100.00;74895.47;5033554;28;19959;-66
2022/08/15 02:40:35;;;;;;;;;;;;;;;-142.75;100.00;74901.38;5033950;28;19917;-66
2022/08/15 02:43:05;;;;;;;;;;;;;;;-142.75;100.00;74897.44;5033773;28;19913;-66
2022/08/15 02:45:36;;;;;;;;;;;;;;;-142.75;100.00;74903.34;5033704;28;19913;-66
2022/08/15 02:48:04;;;;;;;;;;;;;;;-142.75;100.00;74903.34;5033613;28;20281;-66
2022/08/15 02:50:29;;;;;;;;;;;;;;;-142.75;100.00;74899.41;5033666;28;19920;-66
2022/08/15 02:52:54;;;;;;;;;;;;;;;-142.75;100.00;74901.38;5033787;28;19913;-66
2022/08/15 02:55:20;;;;;;;;;;;;;;;-142.75;100.00;74899.41;5033588;28;20434;-66
2022/08/15 02:57:45;;;;;;;;;;;;;;;-142.75;100.00;74901.38;5033210;28;19917;-66
2022/08/15 03:00:15;;;;;;;;;;;;;;;-142.75;100.00;74905.31;5032823;28;19913;-66
2022/08/15 03:02:54;;;;;;;;;;;;;;;-142.75;100.00;74907.28;5033461;28;19996;-66
2022/08/15 03:05:21;;;;;;;;;;;;;;;-142.75;100.00;74909.25;5033369;28;19914;-66
2022/08/15 03:07:46;;;;;;;;;;;;;;;-142.75;100.00;74897.44;5033000;28;19940;-66
2022/08/15 03:10:11;;;;;;;;;;;;;;;-142.75;100.00;74891.53;5033321;28;20375;-66
2022/08/15 03:12:53;;;;;;;;;;;;;;;-142.75;100.00;74877.75;5033209;28;19967;-66
2022/08/15 03:15:18;;;;;;;;;;;;;;;-142.75;100.00;74881.69;5032910;28;19929;-66
2022/08/15 03:17:44;;;;;;;;;;;;;;;-142.75;100.00;74881.69;5032961;28;19913;-66
2022/08/15 03:20:10;;;;;;;;;;;;;;;-142.75;100.00;74893.50;5033131;28;19957;-66
2022/08/15 03:22:46;;;;;;;;;;;;;;;-142.75;100.00;74891.53;5015619;28;19979;-66
2022/08/15 03:25:13;;;;;;;;;;;;;;;-142.75;100.00;74885.63;5033244;28;19913;-66
2022/08/15 03:27:40;;;;;;;;;;;;;;;-142.75;100.00;74887.59;5032773;28;19917;-66
2022/08/15 03:30:07;;;;;;;;;;;;;;;-142.75;100.00;74885.63;5033003;28;19967;-66
2022/08/15 03:32:39;;;;;;;;;;;;;;;-142.75;100.00;74879.72;5033015;28;20335;-66
2022/08/15 03:35:05;;;;;;;;;;;;;;;-142.75;100.00;74893.50;5014985;28;19921;-66
2022/08/15 03:37:30;;;;;;;;;;;;;;;-142.75;100.00;74921.06;5032493;28;20009;-66
2022/08/15 03:39:56;;;;;;;;;;;;;;;-142.75;100.00;74928.91;5032906;28;20449;-65
2022/08/15 03:42:22;;;;;;;;;;;;;;;-142.75;100.00;74924.97;5014952;28;19945;-66
2022/08/15 03:44:47;;;;;;;;;;;;;;;-142.75;100.00;74919.09;5032628;28;19955;-66
2022/08/15 03:47:12;;;;;;;;;;;;;;;-142.75;100.00;74924.97;5032365;28;20379;-66
2022/08/15 03:49:37;;;;;;;;;;;;;;;-142.75;100.00;74924.97;5032669;28;20347;-66
2022/08/15 03:52:06;;;;;;;;;;;;;;;-142.75;100.00;74932.84;5032529;28;19923;-66
2022/08/15 03:54:31;;;;;;;;;;;;;;;-142.75;100.00;74924.97;5014700;28;19935;-66
2022/08/15 03:56:57;;;;;;;;;;;;;;;-142.75;100.00;74926.94;5032334;28;20437;-66
2022/08/15 03:59:22;;;;;;;;;;;;;;;-142.75;100.00;74942.69;5032519;28;19913;-66
2022/08/15 04:01:47;;;;;;;;;;;;;;;-142.75;100.00;74960.41;5032513;28;20015;-66
2022/08/15 04:04:12;;;;;;;;;;;;;;;-142.75;100.00;74976.16;5032376;28;20302;-66
2022/08/15 04:06:40;;;;;;;;;;;;;;;-142.75;100.00;74974.19;5031989;28;19943;-66
2022/08/15 04:09:06;;;;;;;;;;;;;;;-142.75;100.00;74982.03;5032370;28;19917;-66
2022/08/15 04:11:31;;;;;;;;;;;;;;;-142.75;100.00;74984.00;5032290;28;19920;-65
2022/08/15 04:13:57;;;;;;;;;;;;;;;-142.75;100.00;74993.84;5032287;28;19913;-66
2022/08/15 04:16:23;;;;;;;;;;;;;;;-142.75;100.00;75007.63;5065449;22;19925;-68
2022/08/15 04:18:49;;;;;;;;;;;;;;;-142.75;100.00;75013.53;5050025;28;19917;-69
2022/08/15 04:21:14;;;;;;;;;;;;;;;-142.75;100.00;75005.66;5033759;28;19920;-68
2022/08/15 04:23:44;;;;;;;;;;;;;;;-142.75;100.00;75005.66;5052079;28;19956;-68
2022/08/15 04:26:09;;;;;;;;;;;;;;;-142.75;100.00;75007.63;5063692;28;19958;-69
2022/08/15 04:28:35;;;;;;;;;;;;;;;-142.75;100.00;75015.50;5071773;28;19912;-68
2022/08/15 04:31:03;;;;;;;;;;;;;;;-142.75;100.00;75027.31;5072033;28;19917;-68
2022/08/15 04:33:30;;;;;;;;;;;;;;;-142.75;100.00;75017.47;5053952;28;20292;-68
2022/08/15 04:36:00;;;;;;;;;;;;;;;-142.75;100.00;75019.44;5071771;28;19923;-68
2022/08/15 04:38:25;;;;;;;;;;;;;;;-142.75;100.00;75023.38;5071634;28;19913;-68
2022/08/15 04:40:51;;;;;;;;;;;;;;;-142.75;100.00;75023.38;5053974;28;19919;-68
2022/08/15 04:43:18;;;;;;;;;;;;;;;-142.75;100.00;75019.44;5071964;28;19920;-68
2022/08/15 04:45:44;;;;;;;;;;;;;;;-142.75;100.00;75023.38;5071822;28;19920;-68
2022/08/15 04:48:12;;;;;;;;;;;;;;;-142.75;100.00;75025.34;5071533;28;20285;-69
2022/08/15 04:50:38;;;;;;;;;;;;;;;-142.75;100.00;75037.16;5071813;28;19917;-69
2022/08/15 04:53:04;;;;;;;;;;;;;;;-142.75;100.00;75031.25;5053821;28;19995;-68
2022/08/15 04:55:30;;;;;;;;;;;;;;;-142.75;100.00;75027.31;5071650;28;19916;-68
2022/08/15 04:57:56;;;;;;;;;;;;;;;-142.75;100.00;75027.31;5071475;28;19919;-68
2022/08/15 05:00:22;;;;;;;;;;;;;;;-142.75;100.00;75015.50;5071772;28;20396;-68
2022/08/15 05:03:23;;;;;;;;;;;;;;;-142.75;100.00;75015.50;5053523;28;19921;-69
2022/08/15 05:05:52;;;;;;;;;;;;;;;-142.75;100.00;75011.56;4989966;28;19913;-68
2022/08/15 05:08:17;;;;;;;;;;;;;;;-142.75;100.00;75021.41;5055889;28;20496;-68
2022/08/15 05:10:44;;;;;;;;;;;;;;;-142.75;100.00;75015.50;5071652;28;19912;-69
2022/08/15 05:13:17;;;;;;;;;;;;;;;-142.75;100.00;75017.47;5071586;28;19913;-68
2022/08/15 05:15:43;;;;;;;;;;;;;;;-142.75;100.00;75011.56;5071252;28;19928;-68
2022/08/15 05:18:09;;;;;;;;;;;;;;;-142.75;100.00;74995.81;5071191;28;19919;-68
2022/08/15 05:20:34;;;;;;;;;;;;;;;-142.75;100.00;74993.84;5071512;28;19948;-67
2022/08/15 05:23:01;;;;;;;;;;;;;;;-142.75;100.00;74976.16;5073397;28;19913;-68
2022/08/15 05:25:27;;;;;;;;;;;;;;;-142.75;100.00;74966.31;5075002;28;19919;-67
2022/08/15 05:27:52;;;;;;;;;;;;;;;-142.75;100.00;74956.47;5074691;28;19999;-68
2022/08/15 05:30:19;;;;;;;;;;;;;;;-142.75;100.00;74946.63;5075057;28;19965;-68
2022/08/15 05:32:44;;;;;;;;;;;;;;;-142.75;100.00;74938.75;5074959;28;19947;-68
2022/08/15 05:35:10;;;;;;;;;;;;;;;-142.75;100.00;74924.97;5074794;28;19916;-68
2022/08/15 05:37:36;;;;;;;;;;;;;;;-142.75;100.00;74905.31;5074647;28;19912;-68
2022/08/15 05:40:02;;;;;;;;;;;;;;;-142.75;100.00;74897.44;5074859;28;19912;-68
2022/08/15 05:42:42;;;;;;;;;;;;;;;-142.75;100.00;74881.69;5074765;28;20408;-68
2022/08/15 05:45:19;;;;;;;;;;;;;;;-142.75;100.00;74881.69;5056857;28;20269;-68
2022/08/15 05:48:05;;;;;;;;;;;;;;;-142.75;100.00;74879.72;5074455;28;19912;-68
2022/08/15 05:50:42;;;;;;;;;;;;;;;-142.75;100.00;74885.63;5056796;28;20337;-68
2022/08/15 05:53:17;;;;;;;;;;;;;;;-142.75;100.00;74877.75;5074636;28;20326;-68
2022/08/15 05:55:51;;;;;;;;;;;;;;;-142.75;100.00;74899.41;5072982;28;20460;-68
2022/08/15 05:58:22;;;;;;;;;;;;;;;-142.75;100.00;74889.56;5073928;28;19913;-69
2022/08/15 06:00:50;;;;;;;;;;;;;;;-142.75;100.00;74901.38;5074493;28;20020;-68
2022/08/15 06:03:17;;;;;;;;;;;;;;;-142.75;100.00;74901.38;5074362;28;20440;-68
2022/08/15 06:05:45;;;;;;;;;;;;;;;-142.75;100.00;74897.44;5074333;28;19970;-68
2022/08/15 06:08:14;;;;;;;;;;;;;;;-142.75;100.00;74903.34;5074057;28;19916;-68
2022/08/15 06:10:43;;;;;;;;;;;;;;;-142.75;100.00;74903.34;5074320;28;19912;-69
2022/08/15 06:13:11;;;;;;;;;;;;;;;-142.75;100.00;74905.31;5074258;28;20405;-69
2022/08/15 06:15:46;;;;;;;;;;;;;;;-142.75;100.00;74913.19;5073850;28;19920;-68
2022/08/15 06:18:13;;;;;;;;;;;;;;;-142.75;100.00;74911.22;5055833;28;19913;-68
2022/08/15 06:20:53;;;;;;;;;;;;;;;-142.75;100.00;74909.25;5056263;28;19919;-68
2022/08/15 06:23:37;;;;;;;;;;;;;;;-142.75;100.00;74923.03;5074135;28;20289;-68
2022/08/15 06:26:14;;;;;;;;;;;;;;;-142.75;100.00;74932.84;5074033;28;19912;-68
2022/08/15 06:28:39;;;;;;;;;;;;;;;-142.75;100.00;74921.06;5073946;28;19913;-68
2022/08/15 06:31:10;;;;;;;;;;;;;;;-142.75;100.00;74917.13;5074056;28;19919;-68
2022/08/15 06:33:40;;;;;;;;;;;;;;;-142.75;100.00;74924.97;5056041;28;19912;-67
2022/08/15 06:36:20;;;;;;;;;;;;;;;-142.75;100.00;74924.97;5073875;28;19916;-68
2022/08/15 06:38:46;;;;;;;;;;;;;;;-142.75;100.00;74921.06;5073481;28;20374;-68
2022/08/15 06:41:25;;;;;;;;;;;;;;;-142.75;100.00;74932.84;5073643;28;19912;-69
2022/08/15 06:43:50;;;;;;;;;;;;;;;-142.75;100.00;74944.66;5073697;28;19912;-68
2022/08/15 06:46:16;;;;;;;;;;;;;;;-142.75;100.00;74948.59;5073451;28;19912;-68
2022/08/15 06:48:42;;;;;;;;;;;;;;;-142.75;100.00;74944.66;5064220;28;20370;-68
2022/08/15 06:51:09;;;;;;;;;;;;;;;-142.75;100.00;74948.59;5067059;28;19978;-69
2022/08/15 06:53:49;;;;;;;;;;;;;;;-142.75;100.00;74958.44;5061507;28;19916;-68
2022/08/15 06:56:32;;;;;;;;;;;;;;;-142.75;100.00;74962.38;5053193;28;19917;-66
2022/08/15 06:59:13;;;;;;;;;;;;;;;-142.75;100.00;74972.22;5063903;28;19920;-69
2022/08/15 07:01:44;;;;;;;;;;;;;;;-142.75;100.00;74999.75;5071458;28;20445;-69
2022/08/15 07:04:09;;;;;;;;;;;;;;;-142.75;100.00;75029.28;5072585;28;19912;-69
2022/08/15 07:06:39;;;;;;;;;;;;;;;-142.75;100.00;75039.13;5050162;28;19913;-67
2022/08/15 07:09:17;;;;;;;;;;;;;;;-142.75;100.00;75052.88;5050965;28;19917;-69
2022/08/15 07:11:49;;;;;;;;;;;;;;;-142.75;100.00;75064.69;5066338;28;19912;-68
2022/08/15 07:14:23;;;;;;;;;;;;;;;-142.75;100.00;75058.78;5069927;28;20027;-69
2022/08/15 07:17:07;;;;;;;;;;;;;;;-142.75;100.00;75041.09;5045123;28;20374;-68
2022/08/15 07:19:35;;;;;;;;;;;;;;;-142.75;100.00;75052.88;5072253;28;19920;-69
2022/08/15 07:22:01;;;;;;;;;;;;;;;-142.75;100.00;75080.44;5072217;28;19958;-69
2022/08/15 07:24:30;;;;;;;;;;;;;;;-142.75;100.00;75092.25;5072511;28;19920;-69
2022/08/15 07:27:04;;;;;;;;;;;;;;;-142.75;100.00;75080.44;5052593;28;19920;-65
2022/08/15 07:29:35;;;;;;;;;;;;;;;-142.75;100.00;75076.50;5063379;28;19919;-69
2022/08/15 07:32:07;;;;;;;;;;;;;;;-142.75;100.00;75070.59;5035840;28;19964;-69
2022/08/15 07:34:32;;;;;;;;;;;;;;;-142.75;100.00;75060.75;5072586;28;19912;-69
2022/08/15 07:36:59;;;;;;;;;;;;;;;-142.75;100.00;75062.72;5046533;28;19917;-66
2022/08/15 07:39:28;;;;;;;;;;;;;;;-142.75;100.00;75088.31;5065151;28;20452;-68
2022/08/15 07:41:53;;;;;;;;;;;;;;;-142.75;100.00;75068.63;5055346;28;20263;-68
2022/08/15 07:44:21;;;;;;;;;;;;;;;-142.75;100.00;75074.53;5052531;28;20023;-67
2022/08/15 07:46:52;;;;;;;;;;;;;;;-142.75;100.00;75082.41;5051740;28;19948;-69
2022/08/15 07:49:17;;;;;;;;;;;;;;;-142.75;100.00;75084.38;5052441;28;19939;-69
2022/08/15 07:51:46;;;;;;;;;;;;;;;-142.75;100.00;75062.72;5034426;28;20523;-68
2022/08/15 07:54:22;;;;;;;;;;;;;;;-142.75;100.00;75070.59;5052307;28;19917;-69
2022/08/15 07:56:53;;;;;;;;;;;;;;;-142.75;100.00;75076.50;5034106;28;20398;-68
2022/08/15 07:59:23;;;;;;;;;;;;;;;-142.75;100.00;75086.34;5052321;28;20011;-67
2022/08/15 08:01:51;;;;;;;;;;;;;;;-142.75;100.00;75086.34;5052330;28;19917;-68
2022/08/15 08:04:26;;;;;;;;;;;;;;;-142.75;100.00;75119.78;5034393;28;20521;-69
2022/08/15 08:06:52;;;;;;;;;;;;;;;-142.75;100.00;75100.09;5051936;28;20401;-69
2022/08/15 08:09:23;;;;;;;;;;;;;;;-142.75;100.00;75058.78;5065275;28;19920;-67
2022/08/15 08:11:54;;;;;;;;;;;;;;;-142.75;100.00;75039.13;5060040;28;19921;-67
2022/08/15 08:14:19;;;;;;;;;;;;;;;-142.75;100.00;75019.44;5042152;28;19912;-68
2022/08/15 08:16:47;;;;;;;;;;;;;;;-142.75;100.00;74991.88;5060424;28;19930;-68
2022/08/15 08:19:15;;;;;;;;;;;;;;;-142.75;100.00;74952.53;5043647;28;19920;-68
2022/08/15 08:21:59;;;;;;;;;;;;;;;-142.75;100.00;74938.75;5041941;28;19912;-68
2022/08/15 08:24:37;;;;;;;;;;;;;;;-142.75;100.00;74917.13;5060482;28;19913;-67
2022/08/15 08:27:07;;;;;;;;;;;;;;;-142.75;100.00;74913.19;5042341;28;19913;-68
2022/08/15 08:29:49;;;;;;;;;;;;;;;-142.75;100.00;74893.50;5042936;28;19919;-68
2022/08/15 08:32:20;;;;;;;;;;;;;;;-142.75;100.00;74893.50;5062558;28;19967;-68
2022/08/15 08:35:05;;;;;;;;;;;;;;;-142.75;100.00;74928.91;5060971;28;19916;-67
2022/08/15 08:37:37;;;;;;;;;;;;;;;-142.75;100.00;74905.31;5061568;28;20390;-68
2022/08/15 08:43:09;;;;;;;;;;;;;;;-142.75;100.00;74887.59;5029666;28;20356;-68
2022/08/15 08:45:42;;;;;;;;;;;;;;;-142.75;100.00;74899.41;5029648;28;20011;-68
2022/08/15 08:48:34;;;;;;;;;;;;;;;-142.75;100.00;74881.69;5051491;28;19923;-68
2022/08/15 08:51:00;;;;;;;;;;;;;;;-142.75;100.00;74869.88;5071884;28;19913;-68
2022/08/15 08:53:40;;;;;;;;;;;;;;;-142.75;100.00;74862.03;5069690;28;20175;-67
2022/08/15 08:56:14;;;;;;;;;;;;;;;-142.75;100.00;74838.41;5048953;28;20275;-68
2022/08/15 08:58:45;;;;;;;;;;;;;;;-142.75;100.00;74797.09;5064321;28;20003;-68
2022/08/15 09:01:19;;;;;;;;;;;;;;;-142.75;100.00;74787.25;5047973;28;19936;-69
2022/08/15 09:03:47;;;;;;;;;;;;;;;-142.75;100.00;74783.31;5057901;28;20386;-69
2022/08/15 09:06:15;;;;;;;;;;;;;;;-142.75;100.00;74793.16;5055226;28;19913;-68
2022/08/15 09:08:51;;;;;;;;;;;;;;;-142.75;100.00;74793.16;5060422;28;20007;-69
2022/08/15 09:11:35;;;;;;;;;;;;;;;-142.75;100.00;74787.25;5073767;28;19912;-69
2022/08/15 09:14:11;;;;;;;;;;;;;;;-142.75;100.00;74806.94;5072980;28;19917;-68
2022/08/15 09:16:38;;;;;;;;;;;;;;;-142.75;100.00;74810.88;5074205;28;20374;-68
2022/08/15 09:19:09;;;;;;;;;;;;;;;-142.75;100.00;74810.88;5075437;28;19920;-69
2022/08/15 09:21:35;;;;;;;;;;;;;;;-142.75;100.00;74806.94;5057295;28;19978;-68
2022/08/15 09:24:01;;;;;;;;;;;;;;;-142.75;100.00;74793.16;5075120;28;19960;-68
2022/08/15 09:26:27;;;;;;;;;;;;;;;-142.75;100.00;74789.22;5074997;28;19973;-69
2022/08/15 09:29:04;;;;;;;;;;;;;;;-142.75;100.00;74828.56;5074867;28;19912;-69
2022/08/15 09:31:32;;;;;;;;;;;;;;;-142.75;100.00;74836.44;5075010;28;19912;-68
2022/08/15 09:34:10;;;;;;;;;;;;;;;-142.75;100.00;74850.22;5074931;28;19913;-68
2022/08/15 09:36:45;;;;;;;;;;;;;;;-142.75;100.00;74850.22;5074667;28;19956;-67
2022/08/15 09:39:16;;;;;;;;;;;;;;;-142.75;100.00;74830.53;5074919;28;19912;-67
2022/08/15 09:42:05;;;;;;;;;;;;;;;-142.75;100.00;74810.88;5074875;28;19916;-67
2022/08/15 09:44:40;;;;;;;;;;;;;;;-142.75;100.00;74787.25;5074801;28;19999;-68
2022/08/15 09:47:21;;;;;;;;;;;;;;;-142.75;100.00;74797.09;5074447;28;20342;-68
2022/08/15 09:50:05;;;;;;;;;;;;;;;-142.75;100.00;74797.09;5074708;28;20447;-68
2022/08/15 09:52:48;;;;;;;;;;;;;;;-142.75;100.00;74779.38;5074826;28;19912;-68
2022/08/15 09:55:20;;;;;;;;;;;;;;;-142.75;100.00;74755.78;5074602;28;19916;-68
2022/08/15 09:57:50;;;;;;;;;;;;;;;-142.75;100.00;74763.63;5074255;28;20297;-68
2022/08/15 10:00:16;;;;;;;;;;;;;;;-142.75;100.00;74771.50;5074750;28;19991;-68
2022/08/15 10:02:42;;;;;;;;;;;;;;;-142.75;100.00;74771.50;5056545;28;19947;-68
2022/08/15 10:05:13;;;;;;;;;;;;;;;-142.75;100.00;74765.59;5074362;28;20008;-68
2022/08/15 10:07:38;;;;;;;;;;;;;;;-142.75;100.00;74795.13;5074051;28;19916;-68
2022/08/15 10:10:12;;;;;;;;;;;;;;;-142.75;100.00;74795.13;5074786;28;19969;-68
2022/08/15 10:12:38;;;;;;;;;;;;;;;-142.75;100.00;74795.13;5074205;28;19923;-70
2022/08/15 10:17:48;;;;;;;;;;;;;;;-142.75;100.00;74783.31;5051853;28;19986;-66
2022/08/15 10:20:14;;;;;;;;;;;;;;;-142.75;100.00;74767.56;5069672;28;19916;-66
2022/08/15 10:22:43;;;;;;;;;;;;;;;-142.75;100.00;74745.94;5055309;28;19948;-66
2022/08/15 10:25:24;;;;;;;;;;;;;;;-142.75;100.00;74738.06;5070393;28;19913;-66
2022/08/15 10:27:55;;;;;;;;;;;;;;;-142.75;100.00;74718.38;5034616;28;19913;-66
2022/08/15 10:30:24;;;;;;;;;;;;;;;-142.75;100.00;74694.78;5050272;28;19920;-66
2022/08/15 10:32:52;;;;;;;;;;;;;;;-142.75;100.00;74669.19;5034923;28;19913;-66
2022/08/15 10:35:24;;;;;;;;;;;;;;;-142.75;100.00;74663.28;5034665;28;19965;-66
2022/08/15 10:37:56;;;;;;;;;;;;;;;-142.75;100.00;74696.75;5034881;28;19913;-67
2022/08/15 10:40:22;;;;;;;;;;;;;;;-142.75;100.00;74682.97;5035130;28;19913;-66
2022/08/15 10:43:06;;;;;;;;;;;;;;;-142.75;100.00;74681.00;5050260;28;19913;-66
2022/08/15 10:45:46;;;;;;;;;;;;;;;-142.75;100.00;74682.97;5034815;28;19924;-66
2022/08/15 10:48:15;;;;;;;;;;;;;;;-142.75;100.00;74671.16;5035158;28;20354;-66
2022/08/15 10:50:46;;;;;;;;;;;;;;;-142.75;100.00;74663.28;5035032;28;19916;-66
2022/08/15 10:53:29;;;;;;;;;;;;;;;-142.75;100.00;74645.59;5034922;28;20055;-66
2022/08/15 10:56:16;;;;;;;;;;;;;;;-142.75;100.00;74661.31;5034650;28;19917;-66
2022/08/15 10:58:41;;;;;;;;;;;;;;;-142.75;100.00;74663.28;5034430;28;20383;-66
2022/08/15 11:01:10;;;;;;;;;;;;;;;-142.75;100.00;74629.84;5034539;28;19913;-66
2022/08/15 11:03:49;;;;;;;;;;;;;;;-142.75;100.00;74625.91;5034272;28;19920;-66
2022/08/15 11:06:16;;;;;;;;;;;;;;;-142.75;100.00;74616.06;5034063;28;19920;-66
2022/08/15 11:08:46;;;;;;;;;;;;;;;-142.75;100.00;74627.88;5034199;28;19952;-66
2022/08/15 11:11:12;;;;;;;;;;;;;;;-142.75;100.00;74633.78;5034470;28;20003;-67
2022/08/15 11:13:40;;;;;;;;;;;;;;;-142.75;100.00;74684.94;5032868;28;19913;-66
2022/08/15 11:16:12;;;;;;;;;;;;;;;-142.75;100.00;74684.94;5033838;28;19924;-67
2022/08/15 11:18:42;;;;;;;;;;;;;;;-142.75;100.00;74688.88;5033694;28;19913;-66
2022/08/15 11:21:14;;;;;;;;;;;;;;;-142.75;100.00;74720.34;5033424;28;19914;-66
2022/08/15 11:23:39;;;;;;;;;;;;;;;-142.75;100.00;74702.66;5033839;28;19913;-66
2022/08/15 11:26:06;;;;;;;;;;;;;;;-142.75;100.00;74684.94;5033596;28;19920;-66
2022/08/15 11:28:32;;;;;;;;;;;;;;;-142.75;100.00;74692.81;5032412;28;20427;-66
2022/08/15 11:31:05;;;;;;;;;;;;;;;-142.75;100.00;74690.84;5033413;28;19913;-66
2022/08/15 11:33:40;;;;;;;;;;;;;;;-142.75;100.00;74686.91;5033412;28;19979;-66
2022/08/15 11:36:08;;;;;;;;;;;;;;;-142.75;100.00;74681.00;5033346;28;19924;-67
2022/08/15 11:38:35;;;;;;;;;;;;;;;-142.75;100.00;74657.38;5033020;28;19924;-66
2022/08/15 11:41:00;;;;;;;;;;;;;;;-142.75;100.00;74651.50;5033089;28;19963;-66
2022/08/15 11:43:26;;;;;;;;;;;;;;;-142.75;100.00;74665.25;5033338;28;19913;-66
2022/08/15 11:45:53;;;;;;;;;;;;;;;-142.75;100.00;74681.00;5033152;28;19913;-66
2022/08/15 11:48:28;;;;;;;;;;;;;;;-142.75;100.00;74677.06;5032928;28;19920;-66
2022/08/15 11:50:56;;;;;;;;;;;;;;;-142.75;100.00;74679.03;5033223;28;20031;-66
2022/08/15 11:53:21;;;;;;;;;;;;;;;-142.75;100.00;74671.16;5032354;28;20020;-66
2022/08/15 11:55:47;;;;;;;;;;;;;;;-142.75;100.00;74673.13;5032429;28;20054;-66
2022/08/15 11:58:12;;;;;;;;;;;;;;;-142.75;100.00;74663.28;5032543;28;19928;-66
2022/08/15 12:00:37;;;;;;;;;;;;;;;-142.75;100.00;74667.22;5034689;28;19956;-66
2022/08/15 12:03:21;;;;;;;;;;;;;;;-142.75;100.00;74657.38;5034604;28;19917;-66
2022/08/15 12:05:47;;;;;;;;;;;;;;;-142.75;100.00;74643.63;5033603;28;19925;-66
2022/08/15 12:08:12;;;;;;;;;;;;;;;-142.75;100.00;74635.75;5033977;28;19923;-66
2022/08/15 12:10:39;;;;;;;;;;;;;;;-142.75;100.00;74621.97;5034203;28;19917;-66
2022/08/15 12:13:05;;;;;;;;;;;;;;;-142.75;100.00;74612.13;5034584;28;19940;-64
2022/08/15 12:15:30;;;;;;;;;;;;;;;-142.75;100.00;74633.78;5033751;28;20367;-65
2022/08/15 12:18:08;;;;;;;;;;;;;;;-142.75;100.00;74608.19;5033237;28;19913;-66
2022/08/15 12:20:34;;;;;;;;;;;;;;;-142.75;100.00;74596.41;5033808;28;19917;-65
2022/08/15 12:23:18;;;;;;;;;;;;;;;-142.75;100.00;74578.69;5034137;28;19924;-66
2022/08/15 12:25:43;;;;;;;;;;;;;;;-142.75;100.00;74549.19;5034257;28;19913;-66
2022/08/15 12:28:08;;;;;;;;;;;;;;;-142.75;100.00;74555.09;5032878;28;20385;-66
2022/08/15 12:30:33;;;;;;;;;;;;;;;-142.75;100.00;74549.19;5033058;28;19920;-66
2022/08/15 12:32:58;;;;;;;;;;;;;;;-142.75;100.00;74551.16;5037488;28;19998;-66
2022/08/15 12:35:25;;;;;;;;;;;;;;;-142.75;100.00;74547.22;5037635;28;19924;-66